Time;durP1;ratioP1;P1;durP2;ratioP2;P2;SDS_P1;SDS_P2;PMS_P1;PMS_P2;Temp;Humidity;BMP_temperature;BMP_pressure;BME280_temperature;BME280_humidity;BME280_pressure;Samples;Min_cycle;Max_cycle;Signal;HPM_P1;HPM_P2
2022/11/02 08:50:48;;;;;;;5.17;2.10;;;;;;;13.74;90.38;99613.69;5108798;28;20556;-86
2022/11/02 08:53:16;;;;;;;5.70;2.03;;;;;;;14.26;87.92;99616.53;5108401;28;39794;-81
2022/11/02 08:55:44;;;;;;;3.77;1.73;;;;;;;14.83;83.52;99615.47;5108087;28;43285;-83
2022/11/02 08:58:11;;;;;;;5.37;1.93;;;;;;;15.33;79.72;99630.66;5108277;28;42693;-81
2022/11/02 09:00:39;;;;;;;5.07;2.10;;;;;;;15.50;77.00;99632.13;5107849;28;43143;-81
2022/11/02 09:03:08;;;;;;;4.97;1.80;;;;;;;15.48;76.13;99607.38;5084276;28;40010;-82
2022/11/02 09:05:38;;;;;;;4.87;1.67;;;;;;;16.75;72.28;99651.50;5070465;28;41875;-84
2022/11/02 09:08:10;;;;;;;4.40;1.57;;;;;;;18.41;66.53;99657.16;5087254;28;43679;-86
2022/11/02 09:10:38;;;;;;;8.67;1.67;;;;;;;19.06;62.23;99666.06;5087363;28;42192;-84
2022/11/02 09:13:07;;;;;;;4.30;1.53;;;;;;;18.62;63.55;99659.91;5070894;28;39040;-83
2022/11/02 09:15:36;;;;;;;4.03;1.60;;;;;;;18.14;64.68;99660.25;5070682;28;41833;-80
2022/11/02 09:18:04;;;;;;;3.90;1.77;;;;;;;17.67;65.02;99633.72;5087422;28;43272;-83
2022/11/02 09:20:33;;;;;;;3.93;1.53;;;;;;;17.42;64.49;99656.19;5070582;28;42402;-80
2022/11/02 09:23:00;;;;;;;6.67;2.00;;;;;;;17.18;64.47;99657.09;5088880;28;40555;-86
2022/11/02 09:25:30;;;;;;;6.90;2.13;;;;;;;17.04;64.91;99659.16;5070789;28;40656;-81
2022/11/02 09:27:59;;;;;;;5.80;1.60;;;;;;;16.83;64.86;99633.03;5087549;28;42573;-82
2022/11/02 09:30:28;;;;;;;4.33;1.17;;;;;;;16.67;65.03;99621.81;5070182;28;40980;-81
2022/11/02 09:32:56;;;;;;;4.07;1.67;;;;;;;16.79;64.58;99663.69;5070403;28;40956;-81
2022/11/02 09:35:25;;;;;;;6.73;1.73;;;;;;;17.20;62.13;99665.88;5084805;28;40730;-85
2022/11/02 09:37:53;;;;;;;6.13;1.83;;;;;;;18.23;59.06;99674.72;5069286;28;41761;-82
2022/11/02 09:40:22;;;;;;;6.50;1.63;;;;;;;19.14;57.36;99685.09;5068485;28;41988;-82
2022/11/02 09:43:02;;;;;;;4.97;1.77;;;;;;;19.44;56.00;99678.91;5085158;28;40920;-79
2022/11/02 09:45:33;;;;;;;3.50;1.73;;;;;;;20.34;53.02;99685.28;5082254;28;41203;-82
2022/11/02 09:48:05;;;;;;;4.00;1.47;;;;;;;20.22;51.87;99711.47;5065684;28;42018;-82
2022/11/02 09:50:49;;;;;;;3.83;1.50;;;;;;;20.00;52.34;99698.22;5064827;28;42241;-86
2022/11/02 09:53:22;;;;;;;4.03;1.37;;;;;;;20.34;51.37;99691.53;5069435;28;38922;-80
2022/11/02 09:55:53;;;;;;;4.37;1.30;;;;;;;21.03;49.09;99718.44;5069188;28;40890;-83
2022/11/02 09:58:30;;;;;;;4.93;1.43;;;;;;;21.25;48.13;99721.91;5085471;28;42078;-81
2022/11/02 10:01:03;;;;;;;3.90;1.10;;;;;;;20.88;47.47;99736.03;5077916;28;42266;-81
2022/11/02 10:03:45;;;;;;;7.07;1.30;;;;;;;21.31;47.21;99715.91;5047764;28;42205;-83
2022/11/02 10:06:17;;;;;;;4.73;1.60;;;;;;;21.45;46.85;99726.25;5068906;28;42595;-79
2022/11/02 10:08:51;;;;;;;3.03;1.30;;;;;;;23.56;43.90;99740.56;5073423;28;42492;-78
2022/11/02 10:11:32;;;;;;;4.37;1.30;;;;;;;25.09;41.15;99752.38;5077667;28;42138;-80
2022/11/02 10:14:07;;;;;;;2.67;1.47;;;;;;;26.47;39.32;99771.28;5063362;28;39646;-80
2022/11/02 10:16:37;;;;;;;4.43;1.80;;;;;;;28.30;35.99;99782.28;5062690;28;40950;-79
2022/11/02 10:19:13;;;;;;;5.60;1.90;;;;;;;30.26;33.96;99796.47;5078793;28;42799;-84
2022/11/02 10:21:44;;;;;;;7.78;1.77;;;;;;;31.45;30.39;99815.38;5079814;28;42732;-79
2022/11/02 10:24:24;;;;;;;4.93;2.08;;;;;;;33.08;28.59;99824.56;5075660;28;39726;-82
2022/11/02 10:26:55;;;;;;;4.15;1.75;;;;;;;33.88;25.88;99834.06;5057625;28;40471;-83
2022/11/02 10:29:37;;;;;;;3.83;1.85;;;;;;;34.15;25.19;99833.84;5073500;28;42784;-82
2022/11/02 10:32:05;;;;;;;4.25;1.40;;;;;;;34.84;24.61;99835.53;5071276;28;42235;-86
2022/11/02 10:34:34;;;;;;;5.20;1.25;;;;;;;34.33;26.52;99762.41;5057922;28;40228;-85
2022/11/02 10:37:14;;;;;;;4.40;1.20;;;;;;;36.24;24.41;99830.59;5072851;28;40780;-83
2022/11/02 10:39:52;;;;;;;3.20;1.50;;;;;;;35.34;24.34;99807.81;5056489;28;42960;-85
2022/11/02 10:43:00;;;;;;;5.28;1.80;;;;;;;36.50;22.84;99813.56;5070687;28;43343;-87
2022/11/02 10:45:51;;;;;;;3.50;1.70;;;;;;;34.07;24.26;99817.63;5051392;28;40314;-84
2022/11/02 10:48:32;;;;;;;4.32;1.58;;;;;;;36.46;22.80;99804.09;5071954;28;43202;-82
2022/11/02 10:51:08;;;;;;;4.35;1.77;;;;;;;34.94;23.05;99816.56;5069736;28;42887;-83
2022/11/02 10:53:39;;;;;;;5.38;1.35;;;;;;;33.28;24.21;99793.44;5071402;28;42244;-81
2022/11/02 10:56:14;;;;;;;2.50;1.50;;;;;;;31.56;25.56;99792.84;5055540;28;41064;-80
2022/11/02 10:58:48;;;;;;;3.17;1.67;;;;;;;32.12;25.55;99791.44;5055341;28;40421;-82
2022/11/02 11:01:17;;;;;;;4.57;1.93;;;;;;;31.68;25.78;99783.84;5069458;28;43780;-79
2022/11/02 11:03:59;;;;;;;6.43;1.63;;;;;;;31.32;28.12;99767.75;5073296;28;42122;-83
2022/11/02 11:06:29;;;;;;;3.85;1.50;;;;;;;32.22;27.91;99762.75;5072361;28;38868;-88
2022/11/02 11:09:04;;;;;;;4.78;1.50;;;;;;;33.42;25.15;99792.28;5055302;28;41783;-82
2022/11/02 11:11:33;;;;;;;5.30;1.55;;;;;;;34.62;23.40;99782.00;5070257;28;43222;-87
2022/11/02 11:14:04;;;;;;;3.70;1.15;;;;;;;35.66;21.79;99811.97;5071023;28;42935;-81
2022/11/02 11:16:37;;;;;;;4.95;1.70;;;;;;;35.38;20.81;99784.22;5072462;28;40294;-81
2022/11/02 11:19:07;;;;;;;4.85;1.60;;;;;;;34.53;21.00;99829.06;5071747;28;42394;-87
2022/11/02 11:21:41;;;;;;;3.55;1.60;;;;;;;32.81;22.98;99804.59;5073045;28;45002;-81
2022/11/02 11:24:20;;;;;;;4.45;1.42;;;;;;;33.11;23.44;99769.22;5054911;28;40923;-88
2022/11/02 11:27:04;;;;;;;2.97;1.20;;;;;;;34.11;22.06;99824.38;5069829;28;39925;-79
2022/11/02 11:29:33;;;;;;;2.78;1.10;;;;;;;34.60;21.99;99818.00;5072336;28;42728;-86
2022/11/02 11:32:03;;;;;;;4.32;1.40;;;;;;;34.73;22.80;99811.50;5071875;28;43724;-85
2022/11/02 11:34:34;;;;;;;3.50;1.55;;;;;;;33.95;22.85;99812.03;5054597;28;43758;-84
2022/11/02 11:37:08;;;;;;;2.85;1.42;;;;;;;34.38;21.85;99823.06;5054874;28;39959;-84
2022/11/02 11:39:39;;;;;;;4.55;1.30;;;;;;;36.34;20.72;99814.31;5071517;28;42797;-81
2022/11/02 11:42:16;;;;;;;4.07;1.85;;;;;;;38.14;19.05;99815.75;5072688;28;42191;-82
2022/11/02 11:44:46;;;;;;;3.85;1.25;;;;;;;39.46;18.07;99821.19;5069616;28;42166;-89
2022/11/02 11:47:15;;;;;;;4.30;1.48;;;;;;;40.44;16.70;99830.13;5054686;28;39094;-83
2022/11/02 11:49:48;;;;;;;3.50;1.38;;;;;;;41.05;16.39;99824.97;5072561;28;41710;-82
2022/11/02 11:52:20;;;;;;;2.95;1.17;;;;;;;41.58;16.29;99805.13;5074439;28;41664;-82
2022/11/02 11:54:56;;;;;;;4.70;1.40;;;;;;;42.16;15.13;99811.25;5069244;28;42291;-86
2022/11/02 11:57:28;;;;;;;4.13;1.95;;;;;;;42.19;15.30;99787.59;5069113;28;40016;-83
2022/11/02 12:00:00;;;;;;;3.75;1.30;;;;;;;42.71;14.97;99789.19;5069373;28;42253;-85
2022/11/02 12:02:31;;;;;;;5.28;1.35;;;;;;;43.15;15.11;99792.09;5071989;28;42718;-85
2022/11/02 12:05:11;;;;;;;4.93;1.40;;;;;;;43.56;14.97;99787.09;5069975;28;43101;-80
2022/11/02 12:08:00;;;;;;;3.30;1.20;;;;;;;43.46;14.08;99795.53;5068922;28;40909;-84
2022/11/02 12:10:43;;;;;;;2.53;1.35;;;;;;;43.57;13.46;99792.41;5072014;28;40741;-79
2022/11/02 12:13:26;;;;;;;3.53;1.25;;;;;;;43.35;13.75;99803.13;5071088;28;45075;-86
2022/11/02 12:16:07;;;;;;;5.68;1.60;;;;;;;43.13;14.14;99797.09;5105874;28;40966;-83
2022/11/02 12:18:51;;;;;;;4.53;1.40;;;;;;;42.81;14.07;99800.31;5054290;28;38974;-80
2022/11/02 12:21:30;;;;;;;3.90;1.30;;;;;;;42.08;14.86;99797.91;5069683;28;42708;-82
2022/11/02 12:24:24;;;;;;;4.18;1.40;;;;;;;42.35;15.13;99797.59;5069666;28;42640;-82
2022/11/02 12:27:05;;;;;;;4.00;1.27;;;;;;;39.23;16.13;99769.63;5069016;28;42854;-83
2022/11/02 12:30:04;;;;;;;4.28;1.63;;;;;;;36.99;17.26;99767.13;5054137;28;39041;-80
2022/11/02 12:32:48;;;;;;;4.50;1.85;;;;;;;36.24;18.40;99753.34;5070467;28;40806;-83
2022/11/02 12:35:32;;;;;;;3.83;1.30;;;;;;;35.69;19.29;99744.53;5068015;28;42823;-81
2022/11/02 12:38:23;;;;;;;3.90;1.58;;;;;;;33.80;20.36;99735.41;5068705;28;43069;-86
2022/11/02 12:41:01;;;;;;;6.38;1.55;;;;;;;34.28;21.26;99715.50;5068004;28;39937;-82
2022/11/02 12:43:42;;;;;;;4.15;1.40;;;;;;;34.28;20.75;99726.50;5069465;28;42529;-84
2022/11/02 12:46:28;;;;;;;4.10;1.37;;;;;;;32.30;22.23;99700.31;5069139;28;43536;-87
2022/11/02 12:49:08;;;;;;;4.30;1.53;;;;;;;30.66;23.56;99704.59;5052900;28;42326;-83
2022/11/02 12:51:42;;;;;;;2.87;1.40;;;;;;;29.96;24.46;99693.91;5067899;28;40884;-83
2022/11/02 12:54:11;;;;;;;3.17;1.13;;;;;;;29.50;24.74;99694.38;5071330;28;41645;-84
2022/11/02 12:56:47;;;;;;;3.40;1.30;;;;;;;30.55;24.41;99680.56;5072054;28;44438;-87
2022/11/02 12:59:21;;;;;;;3.77;1.33;;;;;;;31.36;24.00;99680.56;5087840;28;41037;-85
2022/11/02 13:01:52;;;;;;;4.60;1.50;;;;;;;30.83;24.03;99683.19;5054275;28;38830;-82
2022/11/02 13:04:23;;;;;;;2.90;1.43;;;;;;;29.80;25.18;99688.69;5071608;28;42797;-84
2022/11/02 13:06:57;;;;;;;2.70;1.00;;;;;;;28.75;25.79;99667.56;5070707;28;42012;-80
2022/11/02 13:09:30;;;;;;;3.03;1.50;;;;;;;27.92;26.29;99676.09;5071704;28;42301;-85
2022/11/02 13:12:02;;;;;;;2.93;1.40;;;;;;;27.15;28.10;99679.00;5054021;28;39855;-82
2022/11/02 13:14:37;;;;;;;3.17;1.43;;;;;;;26.25;27.85;99675.06;5054044;28;40763;-80
2022/11/02 13:17:10;;;;;;;4.10;1.13;;;;;;;25.41;29.08;99671.03;5068531;28;42700;-84
2022/11/02 13:19:41;;;;;;;3.47;1.07;;;;;;;24.76;29.77;99661.97;5053457;28;41327;-80
2022/11/02 13:22:14;;;;;;;6.60;1.93;;;;;;;24.18;30.14;99649.28;5053808;28;40644;-81
2022/11/02 13:24:46;;;;;;;2.27;1.17;;;;;;;23.65;31.15;99644.09;5070332;28;41766;-82
2022/11/02 13:27:26;;;;;;;2.77;0.90;;;;;;;23.23;32.03;99625.91;5053586;28;41983;-79
2022/11/02 13:29:58;;;;;;;3.20;1.20;;;;;;;23.51;31.92;99629.31;5070610;28;42449;-82
2022/11/02 13:32:32;;;;;;;2.87;1.10;;;;;;;23.70;31.91;99638.22;5070319;28;39089;-78
2022/11/02 13:35:04;;;;;;;2.47;1.30;;;;;;;23.77;31.64;99644.66;5067198;28;41837;-80
2022/11/02 13:37:38;;;;;;;3.30;0.90;;;;;;;24.32;30.76;99651.38;5073322;28;43629;-84
2022/11/02 13:40:13;;;;;;;2.30;1.13;;;;;;;25.44;29.68;99663.56;5070969;28;43222;-80
2022/11/02 13:43:02;;;;;;;3.03;1.10;;;;;;;26.62;28.65;99665.41;5107820;28;39222;-84
2022/11/02 13:45:46;;;;;;;2.33;0.97;;;;;;;27.81;27.79;99673.84;5073528;28;41778;-83
2022/11/02 13:48:39;;;;;;;3.77;1.40;;;;;;;28.75;26.51;99689.38;5071706;28;43967;-82
2022/11/02 13:51:16;;;;;;;2.27;0.97;;;;;;;29.32;25.24;99699.41;5071609;28;43162;-80
2022/11/02 13:53:53;;;;;;;3.10;1.33;;;;;;;29.70;25.16;99696.41;5073509;28;39830;-83
2022/11/02 13:56:24;;;;;;;5.70;1.30;;;;;;;30.01;24.88;99696.88;5073858;28;41981;-85
2022/11/02 13:58:57;;;;;;;3.30;1.53;;;;;;;30.26;24.66;99706.28;5056156;28;42313;-78
2022/11/02 14:01:27;;;;;;;3.53;1.10;;;;;;;30.16;23.65;99714.00;5073345;28;41316;-82
2022/11/02 14:03:58;;;;;;;2.90;1.60;;;;;;;30.00;24.40;99692.47;5073077;28;39697;-86
2022/11/02 14:06:26;;;;;;;3.27;1.20;;;;;;;29.74;24.81;99694.97;5056778;28;40638;-82
2022/11/02 14:08:58;;;;;;;6.37;1.50;;;;;;;29.40;25.78;99687.56;5074068;28;43719;-77
2022/11/02 14:11:46;;;;;;;3.57;1.20;;;;;;;29.15;25.31;99687.94;5056644;28;42160;-91
2022/11/02 14:14:21;;;;;;;3.60;1.30;;;;;;;28.97;26.72;99673.06;5107099;28;39790;-85
2022/11/02 14:17:10;;;;;;;3.73;1.40;;;;;;;28.88;26.28;99673.19;5071313;28;41780;-85
2022/11/02 14:19:55;;;;;;;5.37;1.47;;;;;;;28.08;27.91;99665.00;5074035;28;42770;-82
2022/11/02 14:22:23;;;;;;;3.77;1.23;;;;;;;26.95;28.77;99645.19;5073068;28;41914;-81
2022/11/02 14:25:13;;;;;;;4.47;1.17;;;;;;;26.01;30.83;99635.28;5072890;28;39255;-82
2022/11/02 14:27:41;;;;;;;2.90;1.27;;;;;;;25.09;31.35;99633.09;5055941;28;42808;-80
2022/11/02 14:30:44;;;;;;;5.97;1.53;;;;;;;24.38;32.82;99633.63;5056087;28;42734;-81
2022/11/02 14:33:27;;;;;;;2.50;1.20;;;;;;;23.83;33.61;99620.53;5070575;28;42542;-82
2022/11/02 14:36:00;;;;;;;3.47;1.13;;;;;;;23.33;33.98;99619.53;5056218;28;38957;-83
2022/11/02 14:38:46;;;;;;;4.20;1.30;;;;;;;22.80;35.09;99609.66;5055843;28;40257;-76
2022/11/02 14:41:31;;;;;;;4.77;1.00;;;;;;;22.33;36.16;99606.28;5055899;28;41424;-79
2022/11/02 14:44:18;;;;;;;3.77;1.47;;;;;;;21.85;35.99;99605.53;5072692;28;42122;-84
2022/11/02 14:46:56;;;;;;;2.60;1.23;;;;;;;21.39;36.69;99597.47;5072787;28;39967;-81
2022/11/02 14:49:27;;;;;;;4.73;0.90;;;;;;;21.00;36.96;99592.16;5071692;28;41720;-84
2022/11/02 14:52:00;;;;;;;4.87;1.30;;;;;;;20.63;37.65;99588.50;5056132;28;42799;-79
2022/11/02 14:54:29;;;;;;;2.53;1.20;;;;;;;20.29;37.39;99596.94;5088929;28;42198;-84
2022/11/02 14:57:02;;;;;;;4.60;1.73;;;;;;;19.96;37.83;99595.44;5073626;28;40381;-81
2022/11/02 14:59:33;;;;;;;3.03;1.60;;;;;;;19.68;37.70;99594.34;5106168;28;41612;-83
2022/11/02 15:02:03;;;;;;;2.80;1.30;;;;;;;19.36;38.78;99590.94;5070785;28;43826;-83
2022/11/02 15:04:34;;;;;;;2.53;1.10;;;;;;;18.98;39.09;99568.25;5072202;28;41328;-82
2022/11/02 15:07:04;;;;;;;3.10;1.13;;;;;;;18.80;39.63;99577.00;5072858;28;40152;-85
2022/11/02 15:09:56;;;;;;;4.93;1.33;;;;;;;18.62;40.87;99585.66;5072210;28;42415;-82
2022/11/02 15:12:32;;;;;;;3.07;1.10;;;;;;;18.33;40.89;99578.28;5103073;28;43491;-83
2022/11/02 15:15:06;;;;;;;3.63;1.37;;;;;;;18.11;40.96;99587.25;5069422;28;42205;-80
2022/11/02 15:18:08;;;;;;;6.07;1.63;;;;;;;17.81;42.05;99572.69;5055210;28;40285;-82
2022/11/02 15:20:37;;;;;;;2.37;1.30;;;;;;;17.68;42.05;99592.56;5063214;28;40977;-81
2022/11/02 15:23:24;;;;;;;2.43;1.23;;;;;;;17.49;42.26;99596.66;5071814;28;42631;-86
2022/11/02 15:25:53;;;;;;;3.17;1.13;;;;;;;17.31;42.04;99590.06;5071616;28;41905;-85
2022/11/02 15:28:25;;;;;;;5.17;1.70;;;;;;;17.15;42.05;99587.75;5054958;28;40190;-81
2022/11/02 15:30:55;;;;;;;4.13;1.63;;;;;;;16.89;43.28;99570.19;5071700;28;44006;-86
2022/11/02 15:33:36;;;;;;;4.40;1.30;;;;;;;16.78;43.13;99576.38;5071312;28;43260;-82
2022/11/02 15:36:07;;;;;;;2.90;1.30;;;;;;;16.63;43.41;99569.50;5055239;28;42416;-84
2022/11/02 15:38:35;;;;;;;3.63;1.77;;;;;;;16.52;44.19;99575.63;5055652;28;38886;-86
2022/11/02 15:41:12;;;;;;;8.03;2.00;;;;;;;16.39;44.59;99568.66;5073080;28;41494;-79
2022/11/02 15:44:01;;;;;;;4.03;1.43;;;;;;;16.26;45.53;99562.50;5054299;28;41170;-80
2022/11/02 15:46:42;;;;;;;3.97;1.20;;;;;;;16.09;45.60;99566.44;5069920;28;41948;-82
2022/11/02 15:49:31;;;;;;;6.67;1.37;;;;;;;15.94;45.68;99573.78;5070868;28;40000;-83
2022/11/02 15:52:07;;;;;;;4.23;1.73;;;;;;;15.80;45.97;99571.25;5068811;28;42695;-83
2022/11/02 15:54:54;;;;;;;2.90;1.20;;;;;;;15.65;46.68;99564.34;5105149;28;44713;-83
2022/11/02 15:57:27;;;;;;;3.03;1.30;;;;;;;15.51;47.27;99559.09;5070854;28;41323;-83
2022/11/02 16:00:06;;;;;;;3.93;1.60;;;;;;;15.32;47.32;99552.41;5068865;28;41012;-83
2022/11/02 16:02:38;;;;;;;6.17;1.57;;;;;;;15.26;47.50;99555.50;5069538;28;41806;-84
2022/11/02 16:05:07;;;;;;;5.53;1.63;;;;;;;15.14;48.33;99548.34;5072239;28;43149;-80
2022/11/02 16:07:36;;;;;;;7.37;2.00;;;;;;;15.02;48.27;99557.22;5072523;28;42223;-84
2022/11/02 16:10:21;;;;;;;5.77;1.80;;;;;;;14.91;50.25;99543.78;5071340;28;41161;-81
2022/11/02 16:12:56;;;;;;;3.07;1.53;;;;;;;14.67;49.84;99538.31;5071176;28;40906;-78
2022/11/02 16:15:26;;;;;;;6.37;2.00;;;;;;;14.67;49.82;99547.19;5054462;28;41712;-83
2022/11/02 16:17:54;;;;;;;3.90;1.87;;;;;;;14.56;50.51;99547.06;5053949;28;41187;-85
2022/11/02 16:20:23;;;;;;;7.00;2.33;;;;;;;14.42;51.59;99524.94;5071383;28;41181;-83
2022/11/02 16:22:54;;;;;;;3.97;1.90;;;;;;;14.33;51.06;99532.59;5070959;28;42806;-84
2022/11/02 16:25:33;;;;;;;3.27;1.63;;;;;;;14.17;51.50;99515.91;5071392;28;43834;-79
2022/11/02 16:28:16;;;;;;;4.43;2.57;;;;;;;14.17;51.17;99531.03;5069036;28;43244;-84
2022/11/02 16:30:58;;;;;;;3.57;1.63;;;;;;;14.03;51.38;99535.47;5054820;28;38905;-85
2022/11/02 16:33:27;;;;;;;5.27;2.20;;;;;;;13.88;52.31;99528.47;5069339;28;42215;-79
2022/11/02 16:35:55;;;;;;;5.27;2.27;;;;;;;13.82;52.39;99542.22;5054254;28;42806;-81
2022/11/02 16:38:23;;;;;;;3.80;2.03;;;;;;;13.63;52.30;99534.53;5071177;28;42858;-79
2022/11/02 16:40:51;;;;;;;3.50;2.03;;;;;;;13.63;52.61;99558.50;5054568;28;38999;-86
2022/11/02 16:43:20;;;;;;;5.93;2.70;;;;;;;13.48;54.41;99532.00;5053984;28;43200;-86
2022/11/02 16:45:51;;;;;;;5.87;2.53;;;;;;;13.44;53.52;99551.78;5105436;28;43105;-83
2022/11/02 16:48:23;;;;;;;6.77;2.13;;;;;;;13.36;53.39;99551.38;5053716;28;42742;-79
2022/11/02 16:51:04;;;;;;;2.47;1.70;;;;;;;13.27;53.41;99550.16;5067918;28;40014;-87
2022/11/02 16:53:33;;;;;;;4.40;2.60;;;;;;;13.17;54.11;99541.06;5070469;28;41736;-78
2022/11/02 16:56:16;;;;;;;5.57;2.53;;;;;;;13.09;55.14;99556.63;5071859;28;42633;-79
2022/11/02 16:58:48;;;;;;;7.50;2.83;;;;;;;13.01;54.59;99559.72;5069813;28;42842;-86
2022/11/02 17:01:22;;;;;;;6.17;2.10;;;;;;;12.90;55.41;99548.91;5054303;28;38944;-82
2022/11/02 17:03:50;;;;;;;8.60;2.90;;;;;;;12.86;55.84;99547.34;5070374;28;41538;-81
2022/11/02 17:06:18;;;;;;;4.10;2.00;;;;;;;12.79;55.66;99535.41;5070876;28;43705;-80
2022/11/02 17:08:52;;;;;;;3.83;2.10;;;;;;;12.70;56.50;99523.53;5070812;28;41599;-87
2022/11/02 17:11:21;;;;;;;3.30;1.90;;;;;;;12.64;56.75;99544.28;5070456;28;40683;-85
2022/11/02 17:13:52;;;;;;;4.90;2.10;;;;;;;12.57;56.79;99536.69;5073608;28;41707;-79
2022/11/02 17:16:21;;;;;;;4.30;2.20;;;;;;;12.52;56.29;99543.22;5057112;28;42735;-82
2022/11/02 17:18:49;;;;;;;5.00;2.60;;;;;;;12.37;57.87;99521.06;5074681;28;42425;-81
2022/11/02 17:21:28;;;;;;;6.23;2.27;;;;;;;12.42;58.57;99540.25;5074152;28;38795;-84
2022/11/02 17:23:58;;;;;;;4.23;2.13;;;;;;;12.37;58.15;99544.97;5056779;28;40995;-82
2022/11/02 17:26:36;;;;;;;6.20;2.40;;;;;;;12.32;58.43;99544.41;5057043;28;41827;-79
2022/11/02 17:29:33;;;;;;;6.43;2.57;;;;;;;12.24;58.57;99536.00;5074105;28;42157;-85
2022/11/02 17:32:04;;;;;;;3.27;1.90;;;;;;;12.18;58.94;99541.69;5071316;28;40965;-79
2022/11/02 17:34:31;;;;;;;7.13;2.23;;;;;;;12.12;58.67;99550.00;5057436;28;41522;-82
2022/11/02 17:36:59;;;;;;;3.90;2.00;;;;;;;12.08;58.64;99549.34;5073892;28;42664;-84
2022/11/02 17:39:27;;;;;;;4.60;1.70;;;;;;;12.03;59.13;99539.91;5056544;28;42143;-82
2022/11/02 17:44:44;;;;;;;5.07;1.90;;;;;;;11.90;58.89;99546.88;5056831;28;40921;-86
2022/11/02 17:47:16;;;;;;;4.50;1.70;;;;;;;11.85;59.36;99549.81;5056702;28;41877;-84
2022/11/02 17:49:43;;;;;;;5.63;2.30;;;;;;;11.78;59.54;99549.28;5073039;28;42440;-83
2022/11/02 17:52:15;;;;;;;4.57;1.83;;;;;;;11.73;60.52;99540.72;5074034;28;40076;-82
2022/11/02 17:54:42;;;;;;;5.53;1.83;;;;;;;11.68;60.23;99545.41;5070493;28;42660;-83
2022/11/02 17:57:12;;;;;;;4.30;2.00;;;;;;;11.63;60.91;99543.94;5073663;28;42393;-78
2022/11/02 17:59:40;;;;;;;4.30;2.33;;;;;;;11.58;61.52;99536.25;5073392;28;42973;-77
2022/11/02 18:02:13;;;;;;;5.50;2.20;;;;;;;11.54;61.34;99534.72;5073463;28;40152;-83
2022/11/02 18:04:41;;;;;;;5.27;2.17;;;;;;;11.48;61.09;99538.56;5056522;28;41712;-77
2022/11/02 18:07:09;;;;;;;3.17;1.83;;;;;;;11.42;61.18;99544.19;5074789;28;43143;-87
2022/11/02 18:09:36;;;;;;;2.87;1.90;;;;;;;11.36;61.62;99535.75;5073216;28;41200;-84
2022/11/02 18:12:04;;;;;;;4.63;1.60;;;;;;;11.30;61.12;99541.38;5073535;28;40179;-85
2022/11/02 18:14:32;;;;;;;3.67;1.80;;;;;;;11.24;61.92;99542.56;5056077;28;41701;-84
2022/11/02 18:16:59;;;;;;;6.57;1.97;;;;;;;11.19;61.82;99539.28;5074507;28;42920;-82
2022/11/02 18:19:31;;;;;;;2.37;1.67;;;;;;;11.13;61.81;99539.63;5072906;28;42624;-79
2022/11/02 18:21:58;;;;;;;3.47;1.80;;;;;;;11.02;61.81;99526.09;5070773;28;40869;-82
2022/11/02 18:24:26;;;;;;;2.47;1.93;;;;;;;11.02;61.52;99539.34;5072707;28;41824;-82
2022/11/02 18:26:54;;;;;;;5.30;2.13;;;;;;;11.00;62.07;99538.59;5056270;28;41898;-81
2022/11/02 18:29:22;;;;;;;4.93;2.30;;;;;;;10.94;63.23;99529.16;5056306;28;42206;-80
2022/11/02 18:31:50;;;;;;;4.50;2.03;;;;;;;10.88;62.42;99537.41;5072806;28;39123;-80
2022/11/02 18:34:17;;;;;;;4.33;1.90;;;;;;;10.81;62.50;99533.38;5072533;28;41915;-84
2022/11/02 18:36:46;;;;;;;4.67;2.07;;;;;;;10.79;63.13;99529.97;5056185;28;44526;-77
2022/11/02 18:39:13;;;;;;;4.33;2.13;;;;;;;10.75;63.42;99528.44;5070863;28;41149;-81
2022/11/02 18:41:41;;;;;;;5.67;2.20;;;;;;;10.71;64.03;99530.38;5055191;28;39774;-77
2022/11/02 18:44:10;;;;;;;3.93;2.30;;;;;;;10.65;63.76;99524.53;5053281;28;41922;-79
2022/11/02 18:46:38;;;;;;;4.97;1.67;;;;;;;10.62;63.95;99520.25;5079678;28;41654;-78
2022/11/02 18:49:05;;;;;;;7.33;2.10;;;;;;;10.58;63.87;99516.06;5077731;28;42917;-79
2022/11/02 18:51:33;;;;;;;8.70;2.63;;;;;;;10.53;64.60;99507.47;5080558;28;39345;-79
2022/11/02 18:54:04;;;;;;;3.97;1.70;;;;;;;10.32;64.13;99496.22;5059440;28;41736;-78
2022/11/02 18:56:31;;;;;;;5.43;2.07;;;;;;;10.35;64.31;99504.00;5078614;28;42077;-78
2022/11/02 18:58:59;;;;;;;3.10;1.70;;;;;;;10.34;64.36;99512.88;5071720;28;42896;-80
2022/11/02 19:01:27;;;;;;;4.50;2.57;;;;;;;10.29;64.96;99504.31;5070862;28;39359;-77
2022/11/02 19:03:57;;;;;;;6.67;2.57;;;;;;;10.29;65.29;99508.72;5071357;28;40221;-84
2022/11/02 19:09:21;;;;;;;2.93;2.00;;;;;;;10.21;65.46;99503.84;5066996;28;41244;-78
2022/11/02 19:12:02;;;;;;;4.27;2.03;;;;;;;10.19;65.72;99505.72;5102237;28;40961;-84
2022/11/02 19:14:32;;;;;;;6.00;2.17;;;;;;;10.13;65.59;99494.56;5070641;28;42952;-79
2022/11/02 19:17:00;;;;;;;7.37;2.40;;;;;;;10.10;65.63;99492.91;5053719;28;41652;-80
2022/11/02 19:19:28;;;;;;;2.97;1.87;;;;;;;9.96;66.12;99474.22;5070217;28;41251;-79
2022/11/02 19:21:55;;;;;;;3.27;1.90;;;;;;;10.01;66.14;99493.38;5072530;28;40603;-76
2022/11/02 19:24:25;;;;;;;4.53;1.90;;;;;;;9.96;66.48;99495.38;5069731;28;41698;-77
2022/11/02 19:26:52;;;;;;;5.57;2.10;;;;;;;9.94;66.36;99497.25;5070827;28;42967;-78
2022/11/02 19:29:20;;;;;;;4.63;2.30;;;;;;;9.89;66.11;99499.28;5070562;28;43211;-78
2022/11/02 19:31:48;;;;;;;5.13;2.13;;;;;;;9.73;66.24;99481.50;5070470;28;39855;-79
2022/11/02 19:34:15;;;;;;;6.60;2.17;;;;;;;9.81;66.57;99498.78;5069608;28;41762;-77
2022/11/02 19:36:43;;;;;;;3.50;1.73;;;;;;;9.78;67.10;99502.44;5070970;28;41743;-76
2022/11/02 19:39:10;;;;;;;4.50;2.60;;;;;;;9.62;66.81;99486.47;5069769;28;42216;-83
2022/11/02 19:41:40;;;;;;;6.87;2.40;;;;;;;9.69;67.39;99495.81;5052822;28;40202;-82
2022/11/02 19:44:07;;;;;;;5.50;3.03;;;;;;;9.51;67.38;99483.50;5066587;28;40647;-77
2022/11/02 19:46:34;;;;;;;3.43;2.67;;;;;;;9.61;67.27;99505.91;5052955;28;43202;-77
2022/11/02 19:49:02;;;;;;;4.70;2.40;;;;;;;9.44;66.83;99487.34;5069737;28;42919;-78
2022/11/02 19:51:30;;;;;;;4.00;2.50;;;;;;;9.51;67.44;99506.44;5070777;28;40133;-77
2022/11/02 19:53:59;;;;;;;4.60;2.37;;;;;;;9.45;67.28;99507.56;5052481;28;40768;-79
2022/11/02 19:56:28;;;;;;;5.97;2.27;;;;;;;9.40;67.26;99506.06;5070586;28;42692;-79
2022/11/02 19:58:58;;;;;;;4.13;2.37;;;;;;;9.35;67.36;99498.38;5069813;28;42366;-79
2022/11/02 20:01:27;;;;;;;5.37;2.87;;;;;;;9.32;67.51;99503.78;5070786;28;39979;-80
2022/11/02 20:03:56;;;;;;;4.73;2.57;;;;;;;9.23;67.10;99488.38;5068758;28;41792;-79
2022/11/02 20:06:26;;;;;;;4.80;2.37;;;;;;;9.23;67.38;99505.09;5052120;28;43125;-76
2022/11/02 20:08:54;;;;;;;6.50;3.50;;;;;;;9.20;67.48;99504.38;5069286;28;42192;-77
2022/11/02 20:11:23;;;;;;;4.67;2.83;;;;;;;9.16;67.80;99506.28;5068247;28;40137;-78
2022/11/02 20:13:51;;;;;;;5.33;3.30;;;;;;;9.14;68.15;99504.66;5071210;28;42636;-78
2022/11/02 20:16:20;;;;;;;6.03;4.37;;;;;;;9.05;68.50;99492.72;5069388;28;42972;-78
2022/11/02 20:18:50;;;;;;;9.10;4.30;;;;;;;9.07;68.55;99503.22;5069889;28;42906;-79
2022/11/02 20:21:20;;;;;;;7.03;3.87;;;;;;;9.04;68.83;99498.06;5069371;28;40890;-83
2022/11/02 20:23:49;;;;;;;7.70;3.73;;;;;;;9.00;68.54;99498.22;5069638;28;41504;-77
2022/11/02 20:26:18;;;;;;;6.67;4.60;;;;;;;8.96;68.41;99494.00;5070049;28;42809;-78
2022/11/02 20:28:47;;;;;;;7.67;3.70;;;;;;;8.94;68.36;99509.06;5053381;28;42365;-80
2022/11/02 20:31:17;;;;;;;6.33;3.70;;;;;;;8.91;69.09;99498.63;5069249;28;40249;-86
2022/11/02 20:33:46;;;;;;;8.03;3.90;;;;;;;8.86;68.89;99500.63;5053280;28;42013;-83
2022/11/02 20:36:14;;;;;;;5.17;3.37;;;;;;;8.83;69.13;99503.41;5069703;28;43697;-81
2022/11/02 20:38:42;;;;;;;9.77;4.00;;;;;;;8.80;69.42;99500.91;5069274;28;42988;-79
2022/11/02 20:41:11;;;;;;;6.20;3.67;;;;;;;8.78;70.33;99492.19;5070149;28;39059;-80
2022/11/02 20:43:41;;;;;;;5.53;3.93;;;;;;;8.70;70.61;99478.47;5070293;28;41727;-83
2022/11/02 20:46:10;;;;;;;7.73;3.90;;;;;;;8.70;69.77;99483.75;5068972;28;42363;-80
2022/11/02 20:48:38;;;;;;;5.00;3.40;;;;;;;8.69;69.77;99492.59;5052495;28;42054;-79
2022/11/02 20:51:09;;;;;;;7.13;3.80;;;;;;;8.67;69.54;99497.09;5066275;28;40037;-80
2022/11/02 20:53:37;;;;;;;7.10;3.50;;;;;;;8.62;69.49;99489.38;5068238;28;40690;-78
2022/11/02 20:56:05;;;;;;;8.13;4.27;;;;;;;8.59;71.50;99486.88;5070236;28;42909;-76
2022/11/02 20:58:32;;;;;;;10.63;5.90;;;;;;;8.56;72.50;99494.06;5052884;28;41531;-82